Douglas, AZ (85607)

10:49 AM MST on February 09, 2016 (GMT -0700)
Bisbee Douglas International | | Change Station
CLOSE
Current Station
Airport
Location: Douglas Bisbee,
Elevation: 4104 ft
Nearby Weather Stations

Elev 4104 ft 31.47 °N, 109.60 °W | Updated 53 minutes ago

Clear
Clear
59 °F
Feels Like 59 °F
N
7
Wind Variable Wind from North

Today
High -- | Low -- °F
--% Chance of Precip.
Yesterday
High -- | Low -- °F
Precip. -- in
Pressure 30.24 in
Visibility 10.0 miles
Clouds Clear
Dew Point 18 °F
Humidity 20%
Rainfall 0.00 in
Snow Depth Not available.
7:05 AM 5:59 PM
New Moon, 2% visible
METAR KDUG 091656Z AUTO 36006KT 10SM CLR 15/M08 A3034 RMK AO2 SLP240 T01501078
Pressure 30.24 in
Visibility 10.0 miles
Clouds Clear
Dew Point 18 °F
Humidity 20%
Rainfall 0.00 in
Snow Depth Not available.
7:05 AM 5:59 PM
New Moon, 2% visible
METAR KDUG 091656Z AUTO 36006KT 10SM CLR 15/M08 A3034 RMK AO2 SLP240 T01501078

10-Day Weather Forecast

Almanac

Astronomy

Feb. 09, 2016 Rise Set
Actual Time
Civil Twilight
Nautical Twilight
Astronomical Twilight
Moon
Length of Visible Light
Length of Day
Tomorrow will be .
, % of the Moon is Illuminated

Today's Extremes

State Highs State Lows

Community

WunderPhotos

Upload Photos

1,891,650 photos uploaded!

WunderBlog® & News

Nearby

Air Quality

  Air Quality AQ Index Pollutant
Not available.

Snow Depth

Station Depth Elevation

Earthquake Activity

City Distance Mag. Time & Date
Minimum magnitude displayed is 2.5.

Coastal Water Temperatures

Place Temperature

Stations

Nearby Weather Stations

Station Location Temp. Windchill Dew Point Humidity Wind Precip. Elev Updated Type
                   

Watches & Warnings

There are currently no watches in effect.